Details From LIBF - Foggia Gino Lisa
To LIPS - Istrana
Flight Number -
Tags generated
Created
Modified
Stats Distance 301 nm / 557 km
Max Altitude 0 ft / 0 m
Waypoints 7
Social Downloads 0
Likes 0
Share VATSIM

Download

Looking for another format? Having issues loading an existing format? Contact us
Advertisement - Login to hide

Notes

None

Route

LIBF PES UL982 ANC UL612 AMLON LIPS

ID Type Via Altitude Latitude Longitude Leg Dist Tot Dist Heading (true) Name
O LIBF APT - 0 ft / 0 m 41.43362˚ 15.53462˚ - 0 nm - Foggia Gino Lisa
PES VOR - 0 ft / 0 m 42.43611˚ 14.18444˚ 85 nm 85 nm 315° / 314° PESCARA VOR-DME
ERDUX FIX UL982 (AWY-HI) 0 ft / 0 m 43.25083˚ 13.68222˚ 53 nm 138 nm 336° / 336° -
ANC VOR UL982 (AWY-HI) 0 ft / 0 m 43.58639˚ 13.47111˚ 22 nm 161 nm 336° / 335° ANCONA VOR-DME
LANLI FIX UL612 (AWY-HI) 0 ft / 0 m 43.95722˚ 13.18056˚ 25 nm 186 nm 331° / 330° -
AMLON FIX UL612 (AWY-HI) 0 ft / 0 m 44.33917˚ 12.87639˚ 26 nm 213 nm 330° / 330° -
O LIPS APT - 0 ft / 0 m 45.68444˚ 12.08723˚ 87 nm 300 nm 338° / 337° Istrana

Altitude Profile

Advertisement - Login to hide

Weather


0- 5 10 15 20 25 30 35+ Temperature / ° C

Clouds and Precipitation
Forecast for 2017-12-18 18:00 UTC. Updated 2 hours ago

Ground ~20,000 ft ~40,000 ft Winds

LIBF

Details ICAO LIBF (FOG)
Name Foggia Gino Lisa
Region Italy
Timezone Europe/Rome (UTC+1.0)
Stats Elevation 265 ft / 81 m (AMSL)
Location 41.433617° 15.534615°
Runways 1
Magnetic Variation 3.555° E

METAR

LIBF 181450Z 27015KT 9999 SCT025 BKN040 05/02 Q1021

Decode

TAF

Not found

Departure Runways

ID Width Length Bearing (true) Bearing (mag) Surface Threshold Offset Overrun Length
15 148 ft / 45 m 4,540 ft / 1,384 m 156.64° 153.08° Concrete 0 ft / 0 m 0 ft / 0 m
33 148 ft / 45 m 4,540 ft / 1,384 m 336.64° 333.08° Concrete 0 ft / 0 m 0 ft / 0 m

LIPS

Details ICAO LIPS
Name Istrana
Region Italy
Timezone Europe/Rome (UTC+1.0)
Stats Elevation 137 ft / 42 m (AMSL)
Location 45.684441° 12.087231°
Runways 1
Magnetic Variation 3.132° E

METAR

LIPS 181355Z 02003KT CAVOK 06/02 Q1022 RMK BKN BKN110 VIS MIN 9999 WIND THR26 01003KT WIND THR08 01003KT BLU

Decode

TAF

Not found

Destination Runways

ID Width Length Bearing (true) Bearing (mag) Surface Threshold Offset Overrun Length
08 105 ft / 32 m 9,791 ft / 2,984 m 81.97° 78.84° Asphalt 956 ft / 291 m 0 ft / 0 m
26 105 ft / 32 m 9,791 ft / 2,984 m 262.00° 258.87° Asphalt 953 ft / 290 m 0 ft / 0 m